sensor_id;sensor_type;location;lat;lon;timestamp;P1;durP1;ratioP1;P2;durP2;ratioP2
9661;SDS011;24982;52.344;12.990;2023-06-22T00:02:14;14.93;;;13.55;;
9661;SDS011;24982;52.344;12.990;2023-06-22T00:05:16;15.05;;;13.80;;
9661;SDS011;24982;52.344;12.990;2023-06-22T00:08:19;13.10;;;12.10;;
9661;SDS011;24982;52.344;12.990;2023-06-22T00:11:21;14.48;;;13.23;;
9661;SDS011;24982;52.344;12.990;2023-06-22T00:14:23;13.10;;;12.00;;
9661;SDS011;24982;52.344;12.990;2023-06-22T00:17:25;13.73;;;12.63;;
9661;SDS011;24982;52.344;12.990;2023-06-22T00:20:27;13.93;;;12.73;;
9661;SDS011;24982;52.344;12.990;2023-06-22T00:23:30;13.60;;;12.43;;
9661;SDS011;24982;52.344;12.990;2023-06-22T00:26:34;14.43;;;13.13;;
9661;SDS011;24982;52.344;12.990;2023-06-22T00:29:36;14.50;;;13.25;;
9661;SDS011;24982;52.344;12.990;2023-06-22T00:32:38;14.48;;;13.25;;
9661;SDS011;24982;52.344;12.990;2023-06-22T00:35:41;14.20;;;13.00;;
9661;SDS011;24982;52.344;12.990;2023-06-22T00:38:44;14.70;;;13.50;;
9661;SDS011;24982;52.344;12.990;2023-06-22T00:41:46;13.95;;;12.77;;
9661;SDS011;24982;52.344;12.990;2023-06-22T00:44:48;14.18;;;13.00;;
9661;SDS011;24982;52.344;12.990;2023-06-22T00:47:51;13.60;;;12.48;;
9661;SDS011;24982;52.344;12.990;2023-06-22T00:50:53;15.20;;;13.80;;
9661;SDS011;24982;52.344;12.990;2023-06-22T00:53:58;14.65;;;13.45;;
9661;SDS011;24982;52.344;12.990;2023-06-22T00:57:00;14.45;;;12.98;;
9661;SDS011;24982;52.344;12.990;2023-06-22T01:00:03;14.52;;;13.13;;
9661;SDS011;24982;52.344;12.990;2023-06-22T01:03:08;14.68;;;13.48;;
9661;SDS011;24982;52.344;12.990;2023-06-22T01:06:11;13.77;;;12.70;;
9661;SDS011;24982;52.344;12.990;2023-06-22T01:09:20;14.23;;;13.02;;
9661;SDS011;24982;52.344;12.990;2023-06-22T01:12:29;14.90;;;13.50;;
9661;SDS011;24982;52.344;12.990;2023-06-22T01:15:36;14.88;;;13.55;;
9661;SDS011;24982;52.344;12.990;2023-06-22T01:18:43;13.77;;;12.52;;
9661;SDS011;24982;52.344;12.990;2023-06-22T01:21:45;14.02;;;12.82;;
9661;SDS011;24982;52.344;12.990;2023-06-22T01:28:18;14.65;;;13.50;;
9661;SDS011;24982;52.344;12.990;2023-06-22T01:31:28;15.20;;;14.00;;
9661;SDS011;24982;52.344;12.990;2023-06-22T01:34:31;16.23;;;14.73;;
9661;SDS011;24982;52.344;12.990;2023-06-22T01:37:36;15.75;;;14.30;;
9661;SDS011;24982;52.344;12.990;2023-06-22T01:40:39;15.68;;;14.38;;
9661;SDS011;24982;52.344;12.990;2023-06-22T01:43:41;14.75;;;13.57;;
9661;SDS011;24982;52.344;12.990;2023-06-22T01:46:46;14.68;;;13.38;;
9661;SDS011;24982;52.344;12.990;2023-06-22T01:49:49;14.85;;;13.55;;
9661;SDS011;24982;52.344;12.990;2023-06-22T01:52:54;14.27;;;13.18;;
9661;SDS011;24982;52.344;12.990;2023-06-22T01:55:56;13.65;;;12.45;;
9661;SDS011;24982;52.344;12.990;2023-06-22T01:59:00;12.88;;;11.77;;
9661;SDS011;24982;52.344;12.990;2023-06-22T02:02:10;12.90;;;11.60;;
9661;SDS011;24982;52.344;12.990;2023-06-22T02:05:15;12.80;;;11.70;;
9661;SDS011;24982;52.344;12.990;2023-06-22T02:08:21;12.32;;;11.27;;
9661;SDS011;24982;52.344;12.990;2023-06-22T02:11:25;11.50;;;10.57;;
9661;SDS011;24982;52.344;12.990;2023-06-22T02:14:29;11.32;;;10.32;;
9661;SDS011;24982;52.344;12.990;2023-06-22T02:17:33;11.32;;;10.43;;
9661;SDS011;24982;52.344;12.990;2023-06-22T02:20:36;10.50;;;9.70;;
9661;SDS011;24982;52.344;12.990;2023-06-22T02:23:38;11.25;;;10.35;;
9661;SDS011;24982;52.344;12.990;2023-06-22T02:26:40;10.88;;;10.07;;
9661;SDS011;24982;52.344;12.990;2023-06-22T02:29:43;11.10;;;10.20;;
9661;SDS011;24982;52.344;12.990;2023-06-22T02:32:46;10.52;;;9.63;;
9661;SDS011;24982;52.344;12.990;2023-06-22T02:35:49;10.70;;;9.80;;
9661;SDS011;24982;52.344;12.990;2023-06-22T02:38:51;9.98;;;9.18;;
9661;SDS011;24982;52.344;12.990;2023-06-22T02:41:54;11.70;;;10.55;;
9661;SDS011;24982;52.344;12.990;2023-06-22T02:44:56;11.75;;;10.55;;
9661;SDS011;24982;52.344;12.990;2023-06-22T02:48:00;10.82;;;9.93;;
9661;SDS011;24982;52.344;12.990;2023-06-22T02:51:02;11.07;;;10.05;;
9661;SDS011;24982;52.344;12.990;2023-06-22T02:54:05;11.50;;;10.13;;
9661;SDS011;24982;52.344;12.990;2023-06-22T02:57:07;10.75;;;9.75;;
9661;SDS011;24982;52.344;12.990;2023-06-22T03:00:15;10.18;;;9.38;;
9661;SDS011;24982;52.344;12.990;2023-06-22T03:03:21;11.05;;;10.07;;
9661;SDS011;24982;52.344;12.990;2023-06-22T03:06:22;10.57;;;9.70;;
9661;SDS011;24982;52.344;12.990;2023-06-22T03:09:28;12.32;;;11.00;;
9661;SDS011;24982;52.344;12.990;2023-06-22T03:12:31;11.32;;;10.50;;
9661;SDS011;24982;52.344;12.990;2023-06-22T03:15:33;13.07;;;11.85;;
9661;SDS011;24982;52.344;12.990;2023-06-22T03:18:36;12.95;;;11.68;;
9661;SDS011;24982;52.344;12.990;2023-06-22T03:21:38;12.07;;;11.07;;
9661;SDS011;24982;52.344;12.990;2023-06-22T03:24:41;12.50;;;11.40;;
9661;SDS011;24982;52.344;12.990;2023-06-22T03:27:43;12.65;;;11.50;;
9661;SDS011;24982;52.344;12.990;2023-06-22T03:30:45;13.90;;;12.55;;
9661;SDS011;24982;52.344;12.990;2023-06-22T03:33:48;12.40;;;11.20;;
9661;SDS011;24982;52.344;12.990;2023-06-22T03:36:50;13.18;;;11.85;;
9661;SDS011;24982;52.344;12.990;2023-06-22T03:39:52;12.68;;;11.68;;
9661;SDS011;24982;52.344;12.990;2023-06-22T03:42:55;12.80;;;11.65;;
9661;SDS011;24982;52.344;12.990;2023-06-22T03:45:57;14.65;;;13.25;;
9661;SDS011;24982;52.344;12.990;2023-06-22T03:49:00;13.70;;;12.40;;
9661;SDS011;24982;52.344;12.990;2023-06-22T03:52:03;14.45;;;13.10;;
9661;SDS011;24982;52.344;12.990;2023-06-22T03:55:06;12.93;;;11.73;;
9661;SDS011;24982;52.344;12.990;2023-06-22T03:58:09;13.75;;;12.55;;
9661;SDS011;24982;52.344;12.990;2023-06-22T04:01:10;15.40;;;13.50;;
9661;SDS011;24982;52.344;12.990;2023-06-22T04:04:14;14.70;;;13.30;;
9661;SDS011;24982;52.344;12.990;2023-06-22T04:07:16;15.50;;;14.10;;
9661;SDS011;24982;52.344;12.990;2023-06-22T04:10:18;14.82;;;13.27;;
9661;SDS011;24982;52.344;12.990;2023-06-22T04:13:20;14.57;;;12.95;;
9661;SDS011;24982;52.344;12.990;2023-06-22T04:16:21;14.20;;;12.80;;
9661;SDS011;24982;52.344;12.990;2023-06-22T04:19:25;13.93;;;12.73;;
9661;SDS011;24982;52.344;12.990;2023-06-22T04:22:27;15.10;;;13.60;;
9661;SDS011;24982;52.344;12.990;2023-06-22T04:25:28;13.90;;;12.70;;
9661;SDS011;24982;52.344;12.990;2023-06-22T04:28:30;13.80;;;12.50;;
9661;SDS011;24982;52.344;12.990;2023-06-22T04:31:35;13.80;;;12.52;;
9661;SDS011;24982;52.344;12.990;2023-06-22T04:34:39;13.52;;;12.15;;
9661;SDS011;24982;52.344;12.990;2023-06-22T04:37:41;13.30;;;11.93;;
9661;SDS011;24982;52.344;12.990;2023-06-22T04:40:43;13.82;;;12.52;;
9661;SDS011;24982;52.344;12.990;2023-06-22T04:43:45;12.52;;;11.43;;
9661;SDS011;24982;52.344;12.990;2023-06-22T04:46:54;12.32;;;11.13;;
9661;SDS011;24982;52.344;12.990;2023-06-22T04:50:01;13.23;;;11.93;;
9661;SDS011;24982;52.344;12.990;2023-06-22T04:53:06;12.00;;;10.93;;
9661;SDS011;24982;52.344;12.990;2023-06-22T04:56:09;12.05;;;11.02;;
9661;SDS011;24982;52.344;12.990;2023-06-22T04:59:12;11.50;;;10.60;;
9661;SDS011;24982;52.344;12.990;2023-06-22T05:02:14;12.20;;;11.20;;
9661;SDS011;24982;52.344;12.990;2023-06-22T05:05:17;11.57;;;10.57;;
9661;SDS011;24982;52.344;12.990;2023-06-22T05:08:19;11.85;;;10.85;;
9661;SDS011;24982;52.344;12.990;2023-06-22T05:11:21;11.60;;;10.60;;
9661;SDS011;24982;52.344;12.990;2023-06-22T05:14:23;11.88;;;10.70;;
9661;SDS011;24982;52.344;12.990;2023-06-22T05:17:25;12.00;;;10.68;;
9661;SDS011;24982;52.344;12.990;2023-06-22T05:20:28;11.80;;;10.80;;
9661;SDS011;24982;52.344;12.990;2023-06-22T05:23:30;13.95;;;10.48;;
9661;SDS011;24982;52.344;12.990;2023-06-22T05:26:32;12.05;;;11.00;;
9661;SDS011;24982;52.344;12.990;2023-06-22T05:29:35;10.73;;;9.73;;
9661;SDS011;24982;52.344;12.990;2023-06-22T05:32:37;10.32;;;9.27;;
9661;SDS011;24982;52.344;12.990;2023-06-22T05:35:41;9.68;;;8.85;;
9661;SDS011;24982;52.344;12.990;2023-06-22T05:38:43;9.15;;;8.35;;
9661;SDS011;24982;52.344;12.990;2023-06-22T05:41:45;8.82;;;8.00;;
9661;SDS011;24982;52.344;12.990;2023-06-22T05:44:47;9.13;;;8.27;;
9661;SDS011;24982;52.344;12.990;2023-06-22T05:47:49;8.65;;;7.85;;
9661;SDS011;24982;52.344;12.990;2023-06-22T05:50:53;9.40;;;7.75;;
9661;SDS011;24982;52.344;12.990;2023-06-22T05:53:55;8.18;;;7.38;;
9661;SDS011;24982;52.344;12.990;2023-06-22T05:56:57;7.70;;;6.90;;
9661;SDS011;24982;52.344;12.990;2023-06-22T05:59:58;7.88;;;7.07;;
9661;SDS011;24982;52.344;12.990;2023-06-22T06:03:00;8.07;;;7.35;;
9661;SDS011;24982;52.344;12.990;2023-06-22T06:06:05;10.10;;;6.70;;
9661;SDS011;24982;52.344;12.990;2023-06-22T06:09:07;7.65;;;6.70;;
9661;SDS011;24982;52.344;12.990;2023-06-22T06:12:08;7.30;;;6.70;;
9661;SDS011;24982;52.344;12.990;2023-06-22T06:15:10;6.32;;;5.88;;
9661;SDS011;24982;52.344;12.990;2023-06-22T06:18:12;6.60;;;6.07;;
9661;SDS011;24982;52.344;12.990;2023-06-22T06:21:16;6.60;;;6.03;;
9661;SDS011;24982;52.344;12.990;2023-06-22T06:24:18;5.47;;;5.18;;
9661;SDS011;24982;52.344;12.990;2023-06-22T06:27:19;5.85;;;5.32;;
9661;SDS011;24982;52.344;12.990;2023-06-22T06:30:21;5.65;;;5.10;;
9661;SDS011;24982;52.344;12.990;2023-06-22T06:33:24;5.95;;;5.35;;
9661;SDS011;24982;52.344;12.990;2023-06-22T06:36:27;5.55;;;5.05;;
9661;SDS011;24982;52.344;12.990;2023-06-22T06:39:29;5.57;;;5.10;;
9661;SDS011;24982;52.344;12.990;2023-06-22T06:42:31;5.35;;;4.95;;
9661;SDS011;24982;52.344;12.990;2023-06-22T06:45:32;4.68;;;4.35;;
9661;SDS011;24982;52.344;12.990;2023-06-22T06:48:34;5.80;;;5.30;;
9661;SDS011;24982;52.344;12.990;2023-06-22T06:51:38;6.15;;;5.43;;
9661;SDS011;24982;52.344;12.990;2023-06-22T06:54:39;5.43;;;4.93;;
9661;SDS011;24982;52.344;12.990;2023-06-22T06:57:42;7.80;;;5.20;;
9661;SDS011;24982;52.344;12.990;2023-06-22T07:00:44;5.95;;;5.55;;
9661;SDS011;24982;52.344;12.990;2023-06-22T07:03:46;5.90;;;5.30;;
9661;SDS011;24982;52.344;12.990;2023-06-22T07:06:49;5.90;;;5.50;;
9661;SDS011;24982;52.344;12.990;2023-06-22T07:09:51;6.53;;;5.90;;
9661;SDS011;24982;52.344;12.990;2023-06-22T07:12:53;6.75;;;5.75;;
9661;SDS011;24982;52.344;12.990;2023-06-22T07:15:54;6.13;;;5.53;;
9661;SDS011;24982;52.344;12.990;2023-06-22T07:18:56;6.15;;;5.75;;
9661;SDS011;24982;52.344;12.990;2023-06-22T07:22:00;6.18;;;5.57;;
9661;SDS011;24982;52.344;12.990;2023-06-22T07:25:02;5.70;;;5.30;;
9661;SDS011;24982;52.344;12.990;2023-06-22T07:28:09;5.70;;;5.30;;
9661;SDS011;24982;52.344;12.990;2023-06-22T07:31:11;5.93;;;5.43;;
9661;SDS011;24982;52.344;12.990;2023-06-22T07:34:13;6.00;;;5.40;;
9661;SDS011;24982;52.344;12.990;2023-06-22T07:37:16;6.07;;;5.50;;
9661;SDS011;24982;52.344;12.990;2023-06-22T07:40:18;6.97;;;5.75;;
9661;SDS011;24982;52.344;12.990;2023-06-22T07:43:20;5.57;;;5.18;;
9661;SDS011;24982;52.344;12.990;2023-06-22T07:46:22;5.97;;;5.55;;
9661;SDS011;24982;52.344;12.990;2023-06-22T07:49:24;8.68;;;5.68;;
9661;SDS011;24982;52.344;12.990;2023-06-22T07:52:27;5.70;;;5.15;;
9661;SDS011;24982;52.344;12.990;2023-06-22T07:55:30;5.63;;;5.22;;
9661;SDS011;24982;52.344;12.990;2023-06-22T07:58:31;6.50;;;5.20;;
9661;SDS011;24982;52.344;12.990;2023-06-22T08:01:34;5.55;;;5.13;;
9661;SDS011;24982;52.344;12.990;2023-06-22T08:04:35;5.97;;;5.20;;
9661;SDS011;24982;52.344;12.990;2023-06-22T08:07:39;5.80;;;5.30;;
9661;SDS011;24982;52.344;12.990;2023-06-22T08:10:41;6.10;;;5.60;;
9661;SDS011;24982;52.344;12.990;2023-06-22T08:13:43;5.38;;;5.00;;
9661;SDS011;24982;52.344;12.990;2023-06-22T08:16:45;5.60;;;5.20;;
9661;SDS011;24982;52.344;12.990;2023-06-22T08:19:47;5.05;;;4.60;;
9661;SDS011;24982;52.344;12.990;2023-06-22T08:22:50;5.05;;;4.75;;
9661;SDS011;24982;52.344;12.990;2023-06-22T08:25:52;7.00;;;5.22;;
9661;SDS011;24982;52.344;12.990;2023-06-22T08:28:54;5.68;;;5.15;;
9661;SDS011;24982;52.344;12.990;2023-06-22T08:31:56;5.13;;;4.70;;
9661;SDS011;24982;52.344;12.990;2023-06-22T08:34:57;4.90;;;4.53;;
9661;SDS011;24982;52.344;12.990;2023-06-22T08:38:01;4.93;;;4.57;;
9661;SDS011;24982;52.344;12.990;2023-06-22T08:41:03;4.90;;;4.50;;
9661;SDS011;24982;52.344;12.990;2023-06-22T08:44:04;5.10;;;4.70;;
9661;SDS011;24982;52.344;12.990;2023-06-22T08:47:06;4.82;;;4.43;;
9661;SDS011;24982;52.344;12.990;2023-06-22T08:50:08;5.57;;;4.93;;
9661;SDS011;24982;52.344;12.990;2023-06-22T08:53:12;4.50;;;4.20;;
9661;SDS011;24982;52.344;12.990;2023-06-22T08:56:14;6.30;;;4.50;;
9661;SDS011;24982;52.344;12.990;2023-06-22T08:59:16;5.30;;;4.80;;
9661;SDS011;24982;52.344;12.990;2023-06-22T09:02:18;6.43;;;4.57;;
9661;SDS011;24982;52.344;12.990;2023-06-22T09:05:20;4.35;;;3.95;;
9661;SDS011;24982;52.344;12.990;2023-06-22T09:08:23;4.65;;;4.35;;
9661;SDS011;24982;52.344;12.990;2023-06-22T09:11:25;4.47;;;4.18;;
9661;SDS011;24982;52.344;12.990;2023-06-22T09:14:27;4.72;;;4.20;;
9661;SDS011;24982;52.344;12.990;2023-06-22T09:17:29;4.95;;;4.55;;
9661;SDS011;24982;52.344;12.990;2023-06-22T09:20:31;5.00;;;4.60;;
9661;SDS011;24982;52.344;12.990;2023-06-22T09:23:34;5.20;;;4.68;;
9661;SDS011;24982;52.344;12.990;2023-06-22T09:26:36;4.65;;;4.35;;
9661;SDS011;24982;52.344;12.990;2023-06-22T09:29:38;5.45;;;4.80;;
9661;SDS011;24982;52.344;12.990;2023-06-22T09:32:40;4.75;;;4.43;;
9661;SDS011;24982;52.344;12.990;2023-06-22T09:35:43;6.35;;;4.50;;
9661;SDS011;24982;52.344;12.990;2023-06-22T09:38:47;5.20;;;4.80;;
9661;SDS011;24982;52.344;12.990;2023-06-22T09:41:57;5.07;;;4.68;;
9661;SDS011;24982;52.344;12.990;2023-06-22T09:45:00;5.25;;;4.70;;
9661;SDS011;24982;52.344;12.990;2023-06-22T09:48:02;5.18;;;4.75;;
9661;SDS011;24982;52.344;12.990;2023-06-22T09:51:04;9.02;;;5.57;;
9661;SDS011;24982;52.344;12.990;2023-06-22T09:54:07;5.22;;;4.85;;
9661;SDS011;24982;52.344;12.990;2023-06-22T09:57:09;6.03;;;5.53;;
9661;SDS011;24982;52.344;12.990;2023-06-22T10:00:11;5.47;;;4.97;;
9661;SDS011;24982;52.344;12.990;2023-06-22T10:03:15;5.32;;;4.93;;
9661;SDS011;24982;52.344;12.990;2023-06-22T10:06:16;5.35;;;4.90;;
9661;SDS011;24982;52.344;12.990;2023-06-22T10:09:20;5.07;;;4.78;;
9661;SDS011;24982;52.344;12.990;2023-06-22T10:12:22;5.30;;;4.90;;
9661;SDS011;24982;52.344;12.990;2023-06-22T10:15:24;5.13;;;4.80;;
9661;SDS011;24982;52.344;12.990;2023-06-22T10:18:27;5.32;;;4.95;;
9661;SDS011;24982;52.344;12.990;2023-06-22T10:21:28;5.32;;;4.93;;
9661;SDS011;24982;52.344;12.990;2023-06-22T10:24:33;7.78;;;5.00;;
9661;SDS011;24982;52.344;12.990;2023-06-22T10:27:35;5.97;;;4.82;;
9661;SDS011;24982;52.344;12.990;2023-06-22T10:30:39;5.10;;;4.78;;
9661;SDS011;24982;52.344;12.990;2023-06-22T10:33:42;5.22;;;4.88;;
9661;SDS011;24982;52.344;12.990;2023-06-22T10:36:44;6.47;;;5.28;;
9661;SDS011;24982;52.344;12.990;2023-06-22T10:39:50;5.20;;;4.90;;
9661;SDS011;24982;52.344;12.990;2023-06-22T10:42:51;6.25;;;4.93;;
9661;SDS011;24982;52.344;12.990;2023-06-22T10:45:53;5.95;;;5.22;;
9661;SDS011;24982;52.344;12.990;2023-06-22T10:48:55;5.30;;;4.95;;
9661;SDS011;24982;52.344;12.990;2023-06-22T10:51:58;5.00;;;4.70;;
9661;SDS011;24982;52.344;12.990;2023-06-22T10:55:02;5.70;;;5.30;;
9661;SDS011;24982;52.344;12.990;2023-06-22T10:58:04;5.57;;;5.18;;
9661;SDS011;24982;52.344;12.990;2023-06-22T11:01:05;5.40;;;5.10;;
9661;SDS011;24982;52.344;12.990;2023-06-22T11:04:07;5.25;;;4.95;;
9661;SDS011;24982;52.344;12.990;2023-06-22T11:07:09;5.22;;;4.72;;
9661;SDS011;24982;52.344;12.990;2023-06-22T11:10:13;5.63;;;5.13;;
9661;SDS011;24982;52.344;12.990;2023-06-22T11:13:15;5.45;;;5.05;;
9661;SDS011;24982;52.344;12.990;2023-06-22T11:16:16;5.90;;;4.80;;
9661;SDS011;24982;52.344;12.990;2023-06-22T11:19:18;5.18;;;4.75;;
9661;SDS011;24982;52.344;12.990;2023-06-22T11:22:20;5.25;;;4.90;;
9661;SDS011;24982;52.344;12.990;2023-06-22T11:25:23;5.35;;;4.95;;
9661;SDS011;24982;52.344;12.990;2023-06-22T11:28:25;5.53;;;5.13;;
9661;SDS011;24982;52.344;12.990;2023-06-22T11:31:27;4.78;;;4.47;;
9661;SDS011;24982;52.344;12.990;2023-06-22T11:34:29;4.80;;;4.50;;
9661;SDS011;24982;52.344;12.990;2023-06-22T11:37:31;5.47;;;5.07;;
9661;SDS011;24982;52.344;12.990;2023-06-22T11:40:34;5.65;;;5.15;;
9661;SDS011;24982;52.344;12.990;2023-06-22T11:43:36;5.38;;;5.03;;
9661;SDS011;24982;52.344;12.990;2023-06-22T11:46:38;5.70;;;5.18;;
9661;SDS011;24982;52.344;12.990;2023-06-22T11:49:40;6.10;;;4.68;;
9661;SDS011;24982;52.344;12.990;2023-06-22T11:52:42;5.15;;;4.85;;
9661;SDS011;24982;52.344;12.990;2023-06-22T11:55:46;5.68;;;5.13;;
9661;SDS011;24982;52.344;12.990;2023-06-22T11:58:48;5.40;;;5.00;;
9661;SDS011;24982;52.344;12.990;2023-06-22T12:01:49;5.25;;;4.90;;
9661;SDS011;24982;52.344;12.990;2023-06-22T12:04:51;5.60;;;4.80;;
9661;SDS011;24982;52.344;12.990;2023-06-22T12:07:56;6.93;;;4.65;;
9661;SDS011;24982;52.344;12.990;2023-06-22T12:10:59;5.05;;;4.75;;
9661;SDS011;24982;52.344;12.990;2023-06-22T12:14:01;5.03;;;4.68;;
9661;SDS011;24982;52.344;12.990;2023-06-22T12:17:03;5.40;;;5.00;;
9661;SDS011;24982;52.344;12.990;2023-06-22T12:20:06;4.88;;;4.57;;
9661;SDS011;24982;52.344;12.990;2023-06-22T12:23:08;4.97;;;4.63;;
9661;SDS011;24982;52.344;12.990;2023-06-22T12:26:12;5.43;;;4.90;;
9661;SDS011;24982;52.344;12.990;2023-06-22T12:29:13;5.00;;;4.60;;
9661;SDS011;24982;52.344;12.990;2023-06-22T12:32:15;4.90;;;4.60;;
9661;SDS011;24982;52.344;12.990;2023-06-22T12:35:17;4.90;;;4.50;;
9661;SDS011;24982;52.344;12.990;2023-06-22T12:38:19;4.70;;;4.32;;
9661;SDS011;24982;52.344;12.990;2023-06-22T12:41:22;4.95;;;4.55;;
9661;SDS011;24982;52.344;12.990;2023-06-22T12:44:24;5.20;;;4.90;;
9661;SDS011;24982;52.344;12.990;2023-06-22T12:47:26;4.47;;;4.28;;
9661;SDS011;24982;52.344;12.990;2023-06-22T12:50:28;5.05;;;4.75;;
9661;SDS011;24982;52.344;12.990;2023-06-22T12:53:30;5.72;;;5.22;;
9661;SDS011;24982;52.344;12.990;2023-06-22T12:56:34;5.97;;;5.38;;
9661;SDS011;24982;52.344;12.990;2023-06-22T12:59:36;5.72;;;5.32;;
9661;SDS011;24982;52.344;12.990;2023-06-22T13:02:37;5.18;;;4.88;;
9661;SDS011;24982;52.344;12.990;2023-06-22T13:05:39;5.25;;;4.95;;
9661;SDS011;24982;52.344;12.990;2023-06-22T13:08:41;4.97;;;4.68;;
9661;SDS011;24982;52.344;12.990;2023-06-22T13:11:44;4.97;;;4.68;;
9661;SDS011;24982;52.344;12.990;2023-06-22T13:14:46;5.10;;;4.70;;
9661;SDS011;24982;52.344;12.990;2023-06-22T13:17:48;5.30;;;4.93;;
9661;SDS011;24982;52.344;12.990;2023-06-22T13:20:51;5.05;;;4.63;;
9661;SDS011;24982;52.344;12.990;2023-06-22T13:23:54;5.10;;;4.60;;
9661;SDS011;24982;52.344;12.990;2023-06-22T13:26:57;5.30;;;5.00;;
9661;SDS011;24982;52.344;12.990;2023-06-22T13:29:59;5.03;;;4.60;;
9661;SDS011;24982;52.344;12.990;2023-06-22T13:33:02;4.75;;;4.45;;
9661;SDS011;24982;52.344;12.990;2023-06-22T13:36:04;5.82;;;4.78;;
9661;SDS011;24982;52.344;12.990;2023-06-22T13:39:07;5.25;;;4.85;;
9661;SDS011;24982;52.344;12.990;2023-06-22T13:42:10;5.38;;;4.97;;
9661;SDS011;24982;52.344;12.990;2023-06-22T13:45:12;5.20;;;4.70;;
9661;SDS011;24982;52.344;12.990;2023-06-22T13:48:16;5.57;;;5.18;;
9661;SDS011;24982;52.344;12.990;2023-06-22T13:51:18;5.20;;;4.85;;
9661;SDS011;24982;52.344;12.990;2023-06-22T13:54:20;4.95;;;4.65;;
9661;SDS011;24982;52.344;12.990;2023-06-22T13:57:23;5.40;;;4.88;;
9661;SDS011;24982;52.344;12.990;2023-06-22T14:00:25;5.40;;;4.90;;
9661;SDS011;24982;52.344;12.990;2023-06-22T14:03:27;5.60;;;5.10;;
9661;SDS011;24982;52.344;12.990;2023-06-22T14:06:29;5.68;;;5.20;;
9661;SDS011;24982;52.344;12.990;2023-06-22T14:09:31;4.80;;;4.50;;
9661;SDS011;24982;52.344;12.990;2023-06-22T14:12:34;5.30;;;4.80;;
9661;SDS011;24982;52.344;12.990;2023-06-22T14:15:36;5.18;;;4.88;;
9661;SDS011;24982;52.344;12.990;2023-06-22T14:18:38;5.57;;;5.13;;
9661;SDS011;24982;52.344;12.990;2023-06-22T14:21:40;4.95;;;4.55;;
9661;SDS011;24982;52.344;12.990;2023-06-22T14:24:42;5.40;;;5.00;;
9661;SDS011;24982;52.344;12.990;2023-06-22T14:27:45;5.32;;;4.93;;
9661;SDS011;24982;52.344;12.990;2023-06-22T14:30:47;6.28;;;5.28;;
9661;SDS011;24982;52.344;12.990;2023-06-22T14:33:49;5.47;;;5.00;;
9661;SDS011;24982;52.344;12.990;2023-06-22T14:36:51;5.57;;;5.18;;
9661;SDS011;24982;52.344;12.990;2023-06-22T14:39:53;6.22;;;5.82;;
9661;SDS011;24982;52.344;12.990;2023-06-22T14:42:56;7.03;;;5.07;;
9661;SDS011;24982;52.344;12.990;2023-06-22T14:45:58;5.43;;;5.03;;
9661;SDS011;24982;52.344;12.990;2023-06-22T14:49:00;5.35;;;5.05;;
9661;SDS011;24982;52.344;12.990;2023-06-22T14:52:02;5.22;;;4.93;;
9661;SDS011;24982;52.344;12.990;2023-06-22T14:55:05;5.75;;;5.20;;
9661;SDS011;24982;52.344;12.990;2023-06-22T14:58:09;5.85;;;5.35;;
9661;SDS011;24982;52.344;12.990;2023-06-22T15:01:11;5.95;;;5.47;;
9661;SDS011;24982;52.344;12.990;2023-06-22T15:04:14;5.72;;;5.32;;
9661;SDS011;24982;52.344;12.990;2023-06-22T15:07:17;5.10;;;4.80;;
9661;SDS011;24982;52.344;12.990;2023-06-22T15:10:19;5.80;;;5.40;;
9661;SDS011;24982;52.344;12.990;2023-06-22T15:13:22;5.32;;;5.03;;
9661;SDS011;24982;52.344;12.990;2023-06-22T15:16:24;6.90;;;5.03;;
9661;SDS011;24982;52.344;12.990;2023-06-22T15:19:26;5.78;;;5.43;;
9661;SDS011;24982;52.344;12.990;2023-06-22T15:22:28;5.68;;;5.28;;
9661;SDS011;24982;52.344;12.990;2023-06-22T15:25:31;5.80;;;5.40;;
9661;SDS011;24982;52.344;12.990;2023-06-22T15:28:34;5.40;;;5.00;;
9661;SDS011;24982;52.344;12.990;2023-06-22T15:31:38;5.78;;;5.28;;
9661;SDS011;24982;52.344;12.990;2023-06-22T15:34:40;5.20;;;4.90;;
9661;SDS011;24982;52.344;12.990;2023-06-22T15:37:41;5.85;;;5.45;;
9661;SDS011;24982;52.344;12.990;2023-06-22T15:40:43;5.40;;;5.10;;
9661;SDS011;24982;52.344;12.990;2023-06-22T15:43:47;5.78;;;5.38;;
9661;SDS011;24982;52.344;12.990;2023-06-22T15:46:48;5.63;;;5.15;;
9661;SDS011;24982;52.344;12.990;2023-06-22T15:49:50;5.45;;;5.05;;
9661;SDS011;24982;52.344;12.990;2023-06-22T15:52:52;5.28;;;4.88;;
9661;SDS011;24982;52.344;12.990;2023-06-22T15:55:54;5.28;;;4.97;;
9661;SDS011;24982;52.344;12.990;2023-06-22T15:58:57;5.40;;;4.90;;
9661;SDS011;24982;52.344;12.990;2023-06-22T16:01:59;5.60;;;5.10;;
9661;SDS011;24982;52.344;12.990;2023-06-22T16:05:01;5.60;;;5.30;;
9661;SDS011;24982;52.344;12.990;2023-06-22T16:08:08;5.60;;;5.30;;
9661;SDS011;24982;52.344;12.990;2023-06-22T16:11:11;5.25;;;4.85;;
9661;SDS011;24982;52.344;12.990;2023-06-22T16:14:14;5.75;;;5.15;;
9661;SDS011;24982;52.344;12.990;2023-06-22T16:17:16;5.78;;;5.15;;
9661;SDS011;24982;52.344;12.990;2023-06-22T16:20:18;5.35;;;4.97;;
9661;SDS011;24982;52.344;12.990;2023-06-22T16:23:21;5.75;;;5.00;;
9661;SDS011;24982;52.344;12.990;2023-06-22T16:26:23;5.30;;;4.88;;
9661;SDS011;24982;52.344;12.990;2023-06-22T16:29:26;5.18;;;4.88;;
9661;SDS011;24982;52.344;12.990;2023-06-22T16:32:28;5.43;;;5.03;;
9661;SDS011;24982;52.344;12.990;2023-06-22T16:35:30;5.70;;;5.20;;
9661;SDS011;24982;52.344;12.990;2023-06-22T16:38:33;5.20;;;4.82;;
9661;SDS011;24982;52.344;12.990;2023-06-22T16:41:38;5.50;;;5.00;;
9661;SDS011;24982;52.344;12.990;2023-06-22T16:44:41;5.63;;;5.22;;
9661;SDS011;24982;52.344;12.990;2023-06-22T16:47:45;4.75;;;4.40;;
9661;SDS011;24982;52.344;12.990;2023-06-22T16:50:47;4.97;;;4.63;;
9661;SDS011;24982;52.344;12.990;2023-06-22T16:53:52;5.28;;;4.72;;
9661;SDS011;24982;52.344;12.990;2023-06-22T16:56:55;13.65;;;6.05;;
9661;SDS011;24982;52.344;12.990;2023-06-22T17:00:01;7.43;;;5.30;;
9661;SDS011;24982;52.344;12.990;2023-06-22T17:03:08;5.75;;;5.00;;
9661;SDS011;24982;52.344;12.990;2023-06-22T17:06:17;5.60;;;5.20;;
9661;SDS011;24982;52.344;12.990;2023-06-22T17:09:20;5.13;;;4.72;;
9661;SDS011;24982;52.344;12.990;2023-06-22T17:12:25;5.57;;;5.07;;
9661;SDS011;24982;52.344;12.990;2023-06-22T17:15:28;5.22;;;4.82;;
9661;SDS011;24982;52.344;12.990;2023-06-22T17:18:35;6.68;;;4.82;;
9661;SDS011;24982;52.344;12.990;2023-06-22T17:21:37;5.03;;;4.65;;
9661;SDS011;24982;52.344;12.990;2023-06-22T17:24:42;4.88;;;4.57;;
9661;SDS011;24982;52.344;12.990;2023-06-22T17:27:46;4.75;;;4.38;;
9661;SDS011;24982;52.344;12.990;2023-06-22T17:30:52;5.43;;;4.93;;
9661;SDS011;24982;52.344;12.990;2023-06-22T17:34:10;5.25;;;4.85;;
9661;SDS011;24982;52.344;12.990;2023-06-22T17:37:14;5.07;;;4.68;;
9661;SDS011;24982;52.344;12.990;2023-06-22T17:40:16;5.85;;;4.75;;
9661;SDS011;24982;52.344;12.990;2023-06-22T17:43:19;5.30;;;4.90;;
9661;SDS011;24982;52.344;12.990;2023-06-22T17:46:22;5.32;;;5.03;;
9661;SDS011;24982;52.344;12.990;2023-06-22T17:49:26;5.00;;;4.60;;
9661;SDS011;24982;52.344;12.990;2023-06-22T17:52:29;5.35;;;4.95;;
9661;SDS011;24982;52.344;12.990;2023-06-22T17:55:31;7.18;;;5.35;;
9661;SDS011;24982;52.344;12.990;2023-06-22T17:58:34;10.05;;;5.80;;
9661;SDS011;24982;52.344;12.990;2023-06-22T18:01:38;5.50;;;5.00;;
9661;SDS011;24982;52.344;12.990;2023-06-22T18:04:40;9.60;;;5.13;;
9661;SDS011;24982;52.344;12.990;2023-06-22T18:07:42;5.30;;;4.90;;
9661;SDS011;24982;52.344;12.990;2023-06-22T18:10:45;6.47;;;5.55;;
9661;SDS011;24982;52.344;12.990;2023-06-22T18:13:47;6.13;;;5.00;;
9661;SDS011;24982;52.344;12.990;2023-06-22T18:16:51;5.07;;;4.78;;